Time;durP1;ratioP1;P1;durP2;ratioP2;P2;SDS_P1;SDS_P2;PMS_P1;PMS_P2;Temp;Humidity;BMP_temperature;BMP_pressure;BME280_temperature;BME280_humidity;BME280_pressure;Samples;Min_cycle;Max_cycle;Signal;HPM_P1;HPM_P2
2023/07/25 00:01:14;;;;;;;;;;;;;;;29.73;40.17;93434.56;5033236;28;9393;-55
2023/07/25 00:03:43;;;;;;;;;;;;;;;29.70;40.88;93425.34;5041985;28;7314;-55
2023/07/25 00:06:10;;;;;;;;;;;;;;;29.70;39.95;93425.34;5044082;28;7012;-62
2023/07/25 00:08:36;;;;;;;;;;;;;;;29.70;40.82;93422.56;5068373;28;9127;-62
2023/07/25 00:11:11;;;;;;;;;;;;;;;29.72;40.14;93427.53;5035402;28;7248;-61
2023/07/25 00:13:37;;;;;;;;;;;;;;;29.72;40.54;93410.91;5041878;28;6981;-62
2023/07/25 00:16:06;;;;;;;;;;;;;;;29.70;40.43;93402.41;5044295;28;9233;-62
2023/07/25 00:18:32;;;;;;;;;;;;;;;29.68;41.19;93391.16;5027766;28;7236;-62
2023/07/25 00:20:58;;;;;;;;;;;;;;;29.69;40.93;93387.06;5043463;28;7305;-61
2023/07/25 00:23:24;;;;;;;;;;;;;;;29.68;40.47;93383.59;5041595;28;7199;-62
2023/07/25 00:25:50;;;;;;;;;;;;;;;29.69;40.98;93379.50;5062759;28;7052;-62
2023/07/25 00:28:16;;;;;;;;;;;;;;;29.68;40.41;93380.06;5046956;28;6992;-62
2023/07/25 00:30:44;;;;;;;;;;;;;;;29.69;40.93;93381.53;5067902;28;7231;-62
2023/07/25 00:33:18;;;;;;;;;;;;;;;29.67;40.09;93386.91;5067328;28;7408;-61
2023/07/25 00:35:52;;;;;;;;;;;;;;;29.69;41.19;93381.53;5039481;28;7741;-61
2023/07/25 00:38:23;;;;;;;;;;;;;;;29.67;40.03;93375.81;5031178;28;8800;-62
2023/07/25 00:40:49;;;;;;;;;;;;;;;29.66;40.91;93396.53;5051194;28;9023;-62
2023/07/25 00:43:14;;;;;;;;;;;;;;;29.64;40.37;93396.34;5034080;28;8340;-62
2023/07/25 00:45:43;;;;;;;;;;;;;;;29.67;39.96;93390.41;5036296;28;6993;-62
2023/07/25 00:48:09;;;;;;;;;;;;;;;29.66;40.94;93396.53;5052345;28;7241;-61
2023/07/25 00:50:37;;;;;;;;;;;;;;;29.66;40.35;93385.44;5066265;28;6950;-62
2023/07/25 00:53:06;;;;;;;;;;;;;;;29.67;41.22;93370.28;5033689;28;6988;-61
2023/07/25 00:55:34;;;;;;;;;;;;;;;29.66;40.29;93379.91;5050622;28;7268;-62
2023/07/25 00:58:04;;;;;;;;;;;;;;;29.67;40.34;93373.03;5048363;28;7233;-62
2023/07/25 01:00:32;;;;;;;;;;;;;;;29.66;40.33;93386.19;5049426;28;7891;-61
2023/07/25 01:03:00;;;;;;;;;;;;;;;29.63;40.19;93375.47;5041849;28;7140;-62
2023/07/25 01:05:38;;;;;;;;;;;;;;;29.65;40.51;93368.06;5051434;28;7436;-61
2023/07/25 01:08:14;;;;;;;;;;;;;;;29.63;40.02;93356.06;5032914;28;7176;-61
2023/07/25 01:10:49;;;;;;;;;;;;;;;29.61;40.06;93356.66;5034516;28;7121;-60
2023/07/25 01:13:15;;;;;;;;;;;;;;;29.63;39.79;93354.03;5066325;28;9121;-61
2023/07/25 01:15:45;;;;;;;;;;;;;;;29.64;40.75;93357.56;5038379;28;7271;-56
2023/07/25 01:18:15;;;;;;;;;;;;;;;29.60;40.01;93344.06;5067267;28;7331;-55
2023/07/25 01:20:43;;;;;;;;;;;;;;;29.63;40.34;93342.22;5051032;28;7241;-56
2023/07/25 01:23:13;;;;;;;;;;;;;;;29.63;40.03;93336.69;5034076;28;8578;-55
2023/07/25 01:25:40;;;;;;;;;;;;;;;29.63;40.09;93339.44;5058976;28;7268;-55
2023/07/25 01:28:15;;;;;;;;;;;;;;;29.61;41.17;93342.03;5035356;28;8821;-55
2023/07/25 01:30:50;;;;;;;;;;;;;;;29.60;40.95;93332.28;5037565;28;9178;-55
2023/07/25 01:33:18;;;;;;;;;;;;;;;29.63;40.21;93337.41;5062379;28;7247;-55
2023/07/25 01:35:49;;;;;;;;;;;;;;;29.62;40.66;93329.66;5050839;28;7270;-55
2023/07/25 01:38:17;;;;;;;;;;;;;;;29.61;40.53;93315.06;5028691;28;7295;-55
2023/07/25 01:40:53;;;;;;;;;;;;;;;29.62;39.95;93313.75;5056580;28;7404;-56
2023/07/25 01:43:21;;;;;;;;;;;;;;;29.64;40.69;93302.13;5052807;28;7244;-55
2023/07/25 01:45:48;;;;;;;;;;;;;;;29.63;40.51;93303.41;5026594;28;7266;-55
2023/07/25 01:48:22;;;;;;;;;;;;;;;29.63;40.46;93303.41;5051306;28;7048;-55
2023/07/25 01:50:56;;;;;;;;;;;;;;;29.63;40.43;93303.41;5036158;28;9189;-55
2023/07/25 01:53:37;;;;;;;;;;;;;;;29.63;40.50;93297.88;5033940;28;6985;-55
2023/07/25 01:56:14;;;;;;;;;;;;;;;29.62;40.66;93308.22;5029827;28;6984;-55
2023/07/25 01:58:57;;;;;;;;;;;;;;;29.62;40.05;93301.97;5048387;28;7338;-55
2023/07/25 02:01:23;;;;;;;;;;;;;;;29.65;40.51;93296.03;5024428;28;7083;-55
2023/07/25 02:03:51;;;;;;;;;;;;;;;29.64;39.86;93275.16;5025967;28;8903;-56
2023/07/25 02:06:42;;;;;;;;;;;;;;;29.65;40.13;93270.34;5051551;28;9103;-55
2023/07/25 02:09:33;;;;;;;;;;;;;;;29.65;39.87;93270.34;5047216;28;9440;-56
2023/07/25 02:12:38;;;;;;;;;;;;;;;29.65;40.44;93256.47;5060131;28;7483;-55
2023/07/25 02:15:19;;;;;;;;;;;;;;;29.62;40.86;93241.00;4949120;28;9067;-55
2023/07/25 02:17:47;;;;;;;;;;;;;;;29.61;39.78;93223.63;4922327;29;7910;-55
2023/07/25 02:20:32;;;;;;;;;;;;;;;29.63;40.97;93220.28;4934813;29;7235;-55
2023/07/25 02:23:08;;;;;;;;;;;;;;;29.63;40.04;93211.97;4932706;29;7105;-56
2023/07/25 02:25:36;;;;;;;;;;;;;;;29.59;40.57;93214.41;4926873;29;7267;-60
2023/07/25 02:28:26;;;;;;;;;;;;;;;29.60;40.04;93232.50;4907915;29;7105;-60
2023/07/25 02:31:01;;;;;;;;;;;;;;;29.56;39.86;93237.69;4917622;29;7250;-60
2023/07/25 02:33:29;;;;;;;;;;;;;;;29.60;39.93;93240.81;4940662;29;7241;-60
2023/07/25 02:36:09;;;;;;;;;;;;;;;29.61;40.08;93233.97;4912381;29;7262;-60
2023/07/25 02:38:45;;;;;;;;;;;;;;;29.60;40.07;93230.47;4928975;29;7214;-61
2023/07/25 02:41:27;;;;;;;;;;;;;;;29.60;40.06;93244.31;4938349;28;9155;-60
2023/07/25 02:43:53;;;;;;;;;;;;;;;29.61;40.48;93258.91;4936890;28;6995;-60
2023/07/25 02:46:21;;;;;;;;;;;;;;;29.61;40.90;93275.53;5009725;28;7220;-59
2023/07/25 02:48:53;;;;;;;;;;;;;;;29.60;39.94;93293.47;5031318;28;9129;-60
2023/07/25 02:51:28;;;;;;;;;;;;;;;29.59;39.93;93303.81;5039110;28;8759;-60
2023/07/25 02:54:16;;;;;;;;;;;;;;;29.61;39.73;93292.16;5036810;28;7266;-60
2023/07/25 02:56:49;;;;;;;;;;;;;;;29.56;40.75;93265.41;5038194;28;10219;-61
2023/07/25 02:59:21;;;;;;;;;;;;;;;29.52;39.95;93271.34;5071834;28;9199;-59
2023/07/25 03:02:26;;;;;;;;;;;;;;;29.51;41.09;93264.34;5042117;28;9090;-60
2023/07/25 03:05:03;;;;;;;;;;;;;;;29.49;39.95;93255.13;5036970;28;7132;-60
2023/07/25 03:07:46;;;;;;;;;;;;;;;29.46;40.00;93250.69;5044902;28;7361;-60
2023/07/25 03:10:31;;;;;;;;;;;;;;;29.51;39.66;93252.53;5048877;28;7288;-60
2023/07/25 03:13:10;;;;;;;;;;;;;;;29.50;39.84;93267.66;5038651;28;7001;-59
2023/07/25 03:15:39;;;;;;;;;;;;;;;29.50;40.81;93279.50;5055121;28;7317;-60
2023/07/25 03:18:29;;;;;;;;;;;;;;;29.50;40.94;93285.03;5037888;28;7314;-60
2023/07/25 03:21:21;;;;;;;;;;;;;;;29.47;40.57;93274.34;5038312;28;9006;-60
2023/07/25 03:24:02;;;;;;;;;;;;;;;29.47;40.71;93266.03;5013646;28;7217;-60
2023/07/25 03:26:28;;;;;;;;;;;;;;;29.44;40.86;93248.50;5011402;28;8818;-60
2023/07/25 03:29:03;;;;;;;;;;;;;;;29.47;39.58;93257.72;4993594;28;7258;-60
2023/07/25 03:32:03;;;;;;;;;;;;;;;29.45;39.88;93257.56;4993666;28;6982;-60
2023/07/25 03:34:37;;;;;;;;;;;;;;;29.45;40.57;93254.78;4952811;28;7193;-55
2023/07/25 03:37:08;;;;;;;;;;;;;;;29.49;40.78;93268.97;4931482;28;7350;-56
2023/07/25 03:39:34;;;;;;;;;;;;;;;29.43;40.88;93268.44;4936752;28;7220;-55
2023/07/25 03:42:47;;;;;;;;;;;;;;;29.48;39.81;93259.91;4933520;29;8571;-55
2023/07/25 03:45:14;;;;;;;;;;;;;;;29.46;40.27;93261.78;4908580;29;7078;-55
2023/07/25 03:47:49;;;;;;;;;;;;;;;29.41;40.54;93265.50;4916607;29;7615;-55
2023/07/25 03:50:15;;;;;;;;;;;;;;;29.44;39.99;93275.47;4897792;29;7074;-55
2023/07/25 03:52:43;;;;;;;;;;;;;;;29.43;40.26;93290.59;4914430;29;9073;-55
2023/07/25 03:55:12;;;;;;;;;;;;;;;29.43;40.63;93290.59;4891452;29;6982;-55
2023/07/25 03:58:10;;;;;;;;;;;;;;;29.43;39.73;93280.25;4885746;29;6994;-55
2023/07/25 04:00:36;;;;;;;;;;;;;;;29.40;40.55;93286.94;4858107;29;10252;-55
2023/07/25 04:03:02;;;;;;;;;;;;;;;29.40;40.28;93280.66;4838823;29;7104;-55
2023/07/25 04:05:39;;;;;;;;;;;;;;;29.39;39.71;93299.31;4850485;29;9179;-55
2023/07/25 04:08:07;;;;;;;;;;;;;;;29.39;40.10;93310.38;4843310;29;8357;-55
2023/07/25 04:10:44;;;;;;;;;;;;;;;29.44;40.00;93309.44;4878693;29;7298;-55
2023/07/25 04:13:18;;;;;;;;;;;;;;;29.41;40.42;93293.19;4912981;29;7424;-55
2023/07/25 04:15:55;;;;;;;;;;;;;;;29.39;39.67;93306.88;4891272;29;7201;-55
2023/07/25 04:18:35;;;;;;;;;;;;;;;29.42;40.37;93325.16;4898082;29;8172;-55
2023/07/25 04:21:10;;;;;;;;;;;;;;;29.41;40.80;93323.66;4914550;29;7076;-55
2023/07/25 04:23:54;;;;;;;;;;;;;;;29.41;39.67;93321.66;4935481;29;9466;-55
2023/07/25 04:26:27;;;;;;;;;;;;;;;29.41;40.48;93321.66;4930374;28;7140;-55
2023/07/25 04:28:55;;;;;;;;;;;;;;;29.41;39.92;93332.72;4935344;28;7261;-55
2023/07/25 04:31:21;;;;;;;;;;;;;;;29.42;39.85;93325.16;4937983;28;9074;-56
2023/07/25 04:34:01;;;;;;;;;;;;;;;29.42;39.93;93327.94;4927760;28;7261;-55
2023/07/25 04:36:31;;;;;;;;;;;;;;;29.41;40.69;93320.91;5022263;28;9023;-55
2023/07/25 04:38:58;;;;;;;;;;;;;;;29.42;39.75;93322.38;5054500;28;7236;-55
2023/07/25 04:42:03;;;;;;;;;;;;;;;29.42;40.55;93316.84;5027790;28;7113;-55
2023/07/25 04:44:46;;;;;;;;;;;;;;;29.38;39.98;93319.28;5063033;28;7239;-60
2023/07/25 04:47:15;;;;;;;;;;;;;;;29.40;40.32;93322.22;5064972;28;6936;-61
2023/07/25 04:49:47;;;;;;;;;;;;;;;29.38;40.11;93305.41;5052315;28;7050;-61
2023/07/25 04:52:24;;;;;;;;;;;;;;;29.36;40.68;93319.81;5049320;28;7275;-61
2023/07/25 04:55:08;;;;;;;;;;;;;;;29.35;39.81;93317.63;5062202;28;7237;-60
2023/07/25 04:57:51;;;;;;;;;;;;;;;29.33;40.15;93320.94;5052482;28;7196;-60
2023/07/25 05:00:38;;;;;;;;;;;;;;;29.38;40.24;93317.25;5034145;28;7240;-61
2023/07/25 05:03:09;;;;;;;;;;;;;;;29.38;39.99;93316.50;5036167;28;7271;-60
2023/07/25 05:05:51;;;;;;;;;;;;;;;29.36;40.36;93324.63;5037479;28;7243;-60
2023/07/25 05:08:31;;;;;;;;;;;;;;;29.32;40.50;93325.00;5035128;28;7096;-60
2023/07/25 05:11:32;;;;;;;;;;;;;;;29.36;39.40;93332.94;5052763;28;7257;-60
2023/07/25 05:14:09;;;;;;;;;;;;;;;29.38;39.92;93330.34;5008978;28;7013;-60
2023/07/25 05:16:45;;;;;;;;;;;;;;;29.37;40.10;93323.31;5019205;28;9097;-60
2023/07/25 05:19:22;;;;;;;;;;;;;;;29.39;39.91;93331.81;5010469;28;9770;-60
2023/07/25 05:21:59;;;;;;;;;;;;;;;29.39;42.82;93338.09;4984924;28;7324;-60
2023/07/25 05:24:27;;;;;;;;;;;;;;;29.41;40.22;93329.94;4996137;28;6981;-60
2023/07/25 05:27:03;;;;;;;;;;;;;;;29.42;40.70;93336.22;5010120;28;7445;-60
2023/07/25 05:30:00;;;;;;;;;;;;;;;29.38;40.85;93331.09;5015142;28;8904;-60
2023/07/25 05:32:26;;;;;;;;;;;;;;;29.39;40.81;93331.81;4956069;28;7390;-60
2023/07/25 05:35:02;;;;;;;;;;;;;;;29.41;39.99;93331.97;4931006;28;9578;-61
2023/07/25 05:37:40;;;;;;;;;;;;;;;29.39;40.42;93329.03;4956244;28;7982;-61
2023/07/25 05:40:19;;;;;;;;;;;;;;;29.39;41.24;93329.03;4957970;28;7007;-60
2023/07/25 05:42:50;;;;;;;;;;;;;;;29.38;40.31;93322.78;4939539;28;7257;-60
2023/07/25 05:45:18;;;;;;;;;;;;;;;29.38;39.95;93330.34;4932076;28;7313;-59
2023/07/25 05:48:04;;;;;;;;;;;;;;;29.34;41.32;93322.41;4949186;28;7413;-61
2023/07/25 05:50:33;;;;;;;;;;;;;;;29.29;40.77;93323.38;4984800;28;7003;-60
2023/07/25 05:52:59;;;;;;;;;;;;;;;29.35;41.10;93334.22;4961084;28;7212;-60
2023/07/25 05:55:29;;;;;;;;;;;;;;;29.35;40.34;93329.44;4983021;28;7234;-60
2023/07/25 05:57:55;;;;;;;;;;;;;;;29.27;40.61;93339.81;4953431;28;8744;-60
2023/07/25 06:00:22;;;;;;;;;;;;;;;29.30;40.15;93338.69;4975200;28;7250;-60
2023/07/25 06:02:48;;;;;;;;;;;;;;;29.29;40.70;93340.00;4954683;28;7501;-60
2023/07/25 06:05:23;;;;;;;;;;;;;;;29.31;40.43;93345.72;4974992;28;7272;-60
2023/07/25 06:08:20;;;;;;;;;;;;;;;29.35;41.25;93339.78;4998908;28;9124;-61
2023/07/25 06:10:46;;;;;;;;;;;;;;;29.37;41.09;93337.19;4976637;28;6852;-62
2023/07/25 06:13:21;;;;;;;;;;;;;;;29.38;41.15;93344.94;4995964;28;8754;-61
2023/07/25 06:15:58;;;;;;;;;;;;;;;29.40;40.68;93342.34;5008742;28;7241;-62
2023/07/25 06:18:33;;;;;;;;;;;;;;;29.39;41.19;93331.81;4988478;28;7475;-62
2023/07/25 06:21:18;;;;;;;;;;;;;;;29.39;41.10;93340.13;4990062;28;7197;-61
2023/07/25 06:23:44;;;;;;;;;;;;;;;29.37;40.18;93342.72;4997368;28;8712;-61
2023/07/25 06:26:10;;;;;;;;;;;;;;;29.38;41.41;93338.66;4987075;28;7037;-62
2023/07/25 06:28:44;;;;;;;;;;;;;;;29.37;41.17;93339.94;4971886;28;7315;-62
2023/07/25 06:31:21;;;;;;;;;;;;;;;29.36;41.26;93341.25;4980331;28;8459;-62
2023/07/25 06:34:20;;;;;;;;;;;;;;;29.35;40.86;93334.22;4981153;28;7240;-62
2023/07/25 06:37:00;;;;;;;;;;;;;;;29.33;41.51;93334.81;4948307;29;6968;-62
2023/07/25 06:39:36;;;;;;;;;;;;;;;29.31;40.45;93329.09;4958276;28;6944;-62
2023/07/25 06:42:11;;;;;;;;;;;;;;;29.33;40.81;93322.97;4964635;28;9214;-62
2023/07/25 06:44:47;;;;;;;;;;;;;;;29.33;40.65;93325.75;4944411;28;6980;-62
2023/07/25 06:47:15;;;;;;;;;;;;;;;29.33;41.51;93325.75;4963823;28;7246;-62
2023/07/25 06:49:51;;;;;;;;;;;;;;;29.31;41.14;93312.47;5005674;28;9045;-62
2023/07/25 06:52:26;;;;;;;;;;;;;;;29.33;40.98;93320.22;4999203;28;6997;-62
2023/07/25 06:55:25;;;;;;;;;;;;;;;29.36;40.17;93324.63;4992455;28;7461;-62
2023/07/25 06:57:52;;;;;;;;;;;;;;;29.35;40.30;93331.47;4917127;29;6999;-62
2023/07/25 07:00:25;;;;;;;;;;;;;;;29.33;41.49;93332.03;4929599;29;7670;-61
2023/07/25 07:02:54;;;;;;;;;;;;;;;29.32;41.23;93324.28;4944942;29;7261;-62
2023/07/25 07:05:36;;;;;;;;;;;;;;;29.31;40.83;93325.56;4916549;29;8529;-62
2023/07/25 07:08:20;;;;;;;;;;;;;;;29.32;40.57;93335.38;4917197;29;7006;-62
2023/07/25 07:10:46;;;;;;;;;;;;;;;29.33;40.92;93326.50;4947991;29;6962;-61
2023/07/25 07:13:13;;;;;;;;;;;;;;;29.35;41.34;93334.22;4935086;28;7098;-62
2023/07/25 07:16:00;;;;;;;;;;;;;;;29.33;41.30;93331.28;4916866;29;7301;-62
2023/07/25 07:18:32;;;;;;;;;;;;;;;29.33;40.80;93320.22;4948842;28;7014;-62
2023/07/25 07:20:58;;;;;;;;;;;;;;;29.32;40.83;93321.53;4914062;29;6977;-62
2023/07/25 07:23:40;;;;;;;;;;;;;;;29.33;41.31;93317.44;4926868;28;8518;-62
2023/07/25 07:26:19;;;;;;;;;;;;;;;29.34;40.56;93319.63;4921520;29;9112;-62
2023/07/25 07:29:02;;;;;;;;;;;;;;;29.36;40.29;93317.03;4939161;28;8796;-62
2023/07/25 07:31:29;;;;;;;;;;;;;;;29.38;40.95;93316.50;4937201;28;6952;-63
2023/07/25 07:34:10;;;;;;;;;;;;;;;29.40;40.55;93316.66;5004067;28;7001;-62
2023/07/25 07:36:37;;;;;;;;;;;;;;;29.37;40.42;93315.75;5037867;28;8545;-62
2023/07/25 07:39:08;;;;;;;;;;;;;;;29.37;41.36;93310.22;5053736;28;9119;-62
2023/07/25 07:41:35;;;;;;;;;;;;;;;29.37;40.48;93306.69;5052962;28;9043;-62
2023/07/25 07:44:01;;;;;;;;;;;;;;;29.40;40.50;93303.56;5066556;28;7224;-63
2023/07/25 07:46:32;;;;;;;;;;;;;;;29.38;40.66;93313.72;5068538;28;8148;-61
2023/07/25 07:49:02;;;;;;;;;;;;;;;29.39;40.92;93309.66;5034261;28;7189;-62
2023/07/25 07:51:28;;;;;;;;;;;;;;;29.40;40.43;93314.66;5022530;28;8750;-62
2023/07/25 07:53:55;;;;;;;;;;;;;;;29.41;40.85;93310.56;5054163;28;9407;-62
2023/07/25 07:56:21;;;;;;;;;;;;;;;29.39;40.95;93313.16;5053505;28;7118;-62
2023/07/25 07:58:48;;;;;;;;;;;;;;;29.36;40.32;93311.50;5055564;28;9092;-62
2023/07/25 08:01:21;;;;;;;;;;;;;;;29.36;40.55;93311.50;5067147;28;7026;-62
2023/07/25 08:03:49;;;;;;;;;;;;;;;29.37;40.70;93317.78;5052827;28;7269;-62
2023/07/25 08:06:20;;;;;;;;;;;;;;;29.37;40.50;93315.00;5037014;28;7278;-62
2023/07/25 08:08:55;;;;;;;;;;;;;;;29.36;40.97;93319.09;5069950;28;7237;-62
2023/07/25 08:11:21;;;;;;;;;;;;;;;29.36;40.88;93321.88;5071524;28;9176;-61
2023/07/25 08:13:49;;;;;;;;;;;;;;;29.37;40.21;93326.84;5052852;28;7393;-61
2023/07/25 08:16:24;;;;;;;;;;;;;;;29.36;40.61;93319.09;5053288;28;8739;-65
2023/07/25 08:19:10;;;;;;;;;;;;;;;29.37;40.17;93326.09;5048846;28;7193;-63
2023/07/25 08:21:36;;;;;;;;;;;;;;;29.35;41.10;93318.34;5036930;28;9062;-63
2023/07/25 08:24:15;;;;;;;;;;;;;;;29.37;41.17;93326.09;5037188;28;7407;-63
2023/07/25 08:26:50;;;;;;;;;;;;;;;29.37;41.06;93323.31;5047760;28;7188;-62
2023/07/25 08:29:55;;;;;;;;;;;;;;;29.38;41.11;93316.50;5033700;28;7313;-63
2023/07/25 08:32:30;;;;;;;;;;;;;;;29.38;41.34;93317.25;5004910;28;7423;-63
2023/07/25 08:35:14;;;;;;;;;;;;;;;29.38;40.52;93311.69;4995261;28;9311;-63
2023/07/25 08:37:50;;;;;;;;;;;;;;;29.41;40.35;93304.28;5011547;28;7274;-63
2023/07/25 08:40:17;;;;;;;;;;;;;;;29.42;40.32;93311.31;5014628;28;7322;-63
2023/07/25 08:43:07;;;;;;;;;;;;;;;29.40;40.51;93306.34;5011329;28;6996;-63
2023/07/25 08:45:36;;;;;;;;;;;;;;;29.44;40.61;93308.72;5003046;28;9795;-63
2023/07/25 08:48:19;;;;;;;;;;;;;;;29.43;40.18;93323.84;4995864;28;7124;-63
2023/07/25 08:50:52;;;;;;;;;;;;;;;29.41;40.69;93321.66;5003382;28;7471;-62
2023/07/25 08:53:23;;;;;;;;;;;;;;;29.42;40.36;93328.66;4999750;28;9070;-63
2023/07/25 08:55:55;;;;;;;;;;;;;;;29.41;40.23;93327.19;4995762;28;7356;-63
2023/07/25 08:58:43;;;;;;;;;;;;;;;29.43;40.41;93334.94;4988150;28;7053;-63
2023/07/25 09:01:20;;;;;;;;;;;;;;;29.43;40.38;93323.84;4993592;28;9045;-63
2023/07/25 09:03:48;;;;;;;;;;;;;;;29.42;40.93;93322.38;5050709;28;6994;-63
2023/07/25 09:06:15;;;;;;;;;;;;;;;29.44;40.81;93325.31;5045597;28;7151;-63
2023/07/25 09:08:41;;;;;;;;;;;;;;;29.42;40.89;93345.28;5034965;28;7190;-63
2023/07/25 09:11:19;;;;;;;;;;;;;;;29.41;40.78;93340.28;5068563;28;7195;-63
2023/07/25 09:13:50;;;;;;;;;;;;;;;29.39;41.24;93337.34;5035545;28;7100;-62
2023/07/25 09:16:19;;;;;;;;;;;;;;;29.40;40.71;93336.81;5038599;28;9127;-62
2023/07/25 09:18:45;;;;;;;;;;;;;;;29.41;40.63;93341.03;5033018;28;7726;-62
2023/07/25 09:21:14;;;;;;;;;;;;;;;29.41;41.23;93329.22;5034510;28;7930;-63
2023/07/25 09:24:11;;;;;;;;;;;;;;;29.40;41.60;93342.34;5047576;28;7462;-63
2023/07/25 09:26:41;;;;;;;;;;;;;;;29.37;40.88;93343.47;5034702;28;7236;-62
2023/07/25 09:29:07;;;;;;;;;;;;;;;29.39;40.52;93345.66;5053480;28;9354;-62
2023/07/25 09:31:46;;;;;;;;;;;;;;;29.41;40.49;93345.84;5034521;28;7151;-63
2023/07/25 09:34:26;;;;;;;;;;;;;;;29.38;40.92;93352.50;5051232;28;6973;-62
2023/07/25 09:36:51;;;;;;;;;;;;;;;29.42;40.87;93355.63;5037961;28;9056;-62
2023/07/25 09:39:48;;;;;;;;;;;;;;;29.44;40.98;93358.56;5068830;28;7121;-62
2023/07/25 09:42:25;;;;;;;;;;;;;;;29.46;41.00;93350.44;5011321;28;6986;-62
2023/07/25 09:45:08;;;;;;;;;;;;;;;29.44;40.82;93362.09;5010861;28;7218;-62
2023/07/25 09:48:04;;;;;;;;;;;;;;;29.44;41.20;93351.00;4986976;28;7162;-63
2023/07/25 09:50:34;;;;;;;;;;;;;;;29.45;41.19;93354.53;4953038;28;7158;-63
2023/07/25 09:53:03;;;;;;;;;;;;;;;29.45;41.21;93352.47;4944872;28;9079;-62
2023/07/25 09:55:37;;;;;;;;;;;;;;;29.49;40.88;93352.09;4937804;28;8958;-63
2023/07/25 09:58:19;;;;;;;;;;;;;;;29.48;40.21;93354.13;4952467;28;6996;-63
2023/07/25 10:00:47;;;;;;;;;;;;;;;29.49;40.82;93346.56;4953026;28;7194;-63
2023/07/25 10:03:54;;;;;;;;;;;;;;;29.50;41.32;93361.88;4936611;28;7275;-63
2023/07/25 10:06:45;;;;;;;;;;;;;;;29.49;41.38;93349.31;4937067;28;9145;-63
2023/07/25 10:09:45;;;;;;;;;;;;;;;29.50;40.37;93351.53;4950718;28;9463;-63
2023/07/25 10:12:15;;;;;;;;;;;;;;;29.48;40.83;93340.25;4895803;29;7189;-63
2023/07/25 10:15:01;;;;;;;;;;;;;;;29.51;40.67;93339.16;4896103;29;7256;-63
2023/07/25 10:18:03;;;;;;;;;;;;;;;29.51;40.99;93341.94;4894507;29;7328;-63
2023/07/25 10:20:40;;;;;;;;;;;;;;;29.53;41.34;93333.03;4886349;29;9092;-63
2023/07/25 10:24:03;;;;;;;;;;;;;;;29.54;40.83;93340.78;4886555;29;9709;-63
2023/07/25 10:27:09;;;;;;;;;;;;;;;29.56;40.14;93337.44;4820933;29;7080;-63
2023/07/25 10:29:46;;;;;;;;;;;;;;;29.56;40.77;93332.66;4828648;29;6942;-63
2023/07/25 10:32:42;;;;;;;;;;;;;;;29.57;41.03;93323.03;4834742;29;7255;-63
2023/07/25 10:35:10;;;;;;;;;;;;;;;29.58;40.71;93332.81;4821424;29;7519;-61
2023/07/25 10:38:05;;;;;;;;;;;;;;;29.59;40.20;93337.06;4825690;29;7286;-61
2023/07/25 10:40:55;;;;;;;;;;;;;;;29.62;40.30;93327.63;4842540;29;7263;-61
2023/07/25 10:43:49;;;;;;;;;;;;;;;29.62;40.78;93338.00;4818069;29;7077;-61
2023/07/25 10:46:20;;;;;;;;;;;;;;;29.64;40.42;93325.03;4841196;29;9210;-61
2023/07/25 10:49:23;;;;;;;;;;;;;;;29.64;40.17;93333.34;4890879;29;7014;-61
2023/07/25 10:51:56;;;;;;;;;;;;;;;29.63;40.79;93337.41;4900330;29;7015;-61
2023/07/25 10:55:04;;;;;;;;;;;;;;;29.62;40.47;93327.63;4934418;29;7276;-60
2023/07/25 10:57:31;;;;;;;;;;;;;;;29.62;40.92;93335.94;4894857;29;9112;-61
2023/07/25 11:00:13;;;;;;;;;;;;;;;29.62;40.66;93340.75;4911190;28;7249;-61
2023/07/25 11:02:54;;;;;;;;;;;;;;;29.61;40.83;93333.72;4958152;28;7001;-60
2023/07/25 11:05:39;;;;;;;;;;;;;;;29.61;40.98;93340.00;4952412;28;9040;-61
2023/07/25 11:08:05;;;;;;;;;;;;;;;29.63;41.24;93356.81;4974706;28;9104;-61
2023/07/25 11:10:32;;;;;;;;;;;;;;;29.64;40.99;93354.78;4962804;28;7196;-61
2023/07/25 11:13:18;;;;;;;;;;;;;;;29.63;40.50;93353.31;4975615;28;7872;-61
2023/07/25 11:15:55;;;;;;;;;;;;;;;29.64;40.63;93355.53;4985118;28;7175;-61
2023/07/25 11:22:22;;;;;;;;;;;;;;;29.70;41.31;93355.31;4955387;28;7364;-60
2023/07/25 11:25:22;;;;;;;;;;;;;;;29.71;41.10;93354.72;4894002;29;9144;-60
2023/07/25 11:28:07;;;;;;;;;;;;;;;29.72;40.30;93347.16;4903886;29;8812;-61
2023/07/25 11:30:42;;;;;;;;;;;;;;;29.71;40.42;93348.47;4898383;29;7341;-61
2023/07/25 11:33:09;;;;;;;;;;;;;;;29.74;41.17;93348.09;4901773;29;7375;-60
2023/07/25 11:36:03;;;;;;;;;;;;;;;29.75;40.49;93344.00;4920517;29;9180;-61
2023/07/25 11:38:34;;;;;;;;;;;;;;;29.75;41.10;93348.84;4924880;29;8793;-61
2023/07/25 11:41:01;;;;;;;;;;;;;;;29.74;41.25;93352.91;4936585;29;7352;-61
2023/07/25 11:43:40;;;;;;;;;;;;;;;29.77;40.99;93357.31;4920418;29;7229;-61
2023/07/25 11:46:31;;;;;;;;;;;;;;;29.76;40.52;93362.13;4926982;28;7237;-63
2023/07/25 11:49:28;;;;;;;;;;;;;;;29.75;41.40;93352.31;4933201;29;7408;-62
2023/07/25 11:52:32;;;;;;;;;;;;;;;29.78;40.86;93356.00;4941744;28;6994;-62
2023/07/25 11:55:02;;;;;;;;;;;;;;;29.76;40.81;93344.75;4939688;28;9625;-63
2023/07/25 11:57:41;;;;;;;;;;;;;;;29.77;40.59;93349.00;4934007;28;6982;-63
2023/07/25 12:00:11;;;;;;;;;;;;;;;29.79;40.35;93343.63;4935372;28;8761;-62
2023/07/25 12:02:40;;;;;;;;;;;;;;;29.78;40.58;93347.69;4971769;28;10225;-63
2023/07/25 12:05:08;;;;;;;;;;;;;;;29.77;41.19;93346.25;4955343;28;7177;-62
2023/07/25 12:07:58;;;;;;;;;;;;;;;29.78;40.70;93347.69;4971610;28;7121;-63
2023/07/25 12:10:26;;;;;;;;;;;;;;;29.79;41.22;93341.59;4963553;28;7188;-63
2023/07/25 12:12:56;;;;;;;;;;;;;;;29.76;40.54;93342.72;4967030;28;9051;-63
2023/07/25 12:15:24;;;;;;;;;;;;;;;29.78;41.34;93350.47;4972587;28;8998;-62
2023/07/25 12:18:26;;;;;;;;;;;;;;;29.77;41.25;93335.91;4965108;28;7170;-62
2023/07/25 12:21:27;;;;;;;;;;;;;;;29.81;41.06;93332.72;4972803;28;7188;-62
2023/07/25 12:24:12;;;;;;;;;;;;;;;29.82;40.61;93325.16;4886218;29;7205;-63
2023/07/25 12:26:56;;;;;;;;;;;;;;;29.83;41.15;93324.56;4909912;29;7125;-63
2023/07/25 12:29:37;;;;;;;;;;;;;;;29.86;41.36;93323.47;4907385;28;7014;-63
2023/07/25 12:32:21;;;;;;;;;;;;;;;29.86;40.82;93314.41;4932256;29;7225;-63
2023/07/25 12:35:11;;;;;;;;;;;;;;;29.86;40.32;93308.84;4928082;29;7000;-63
2023/07/25 12:38:06;;;;;;;;;;;;;;;29.91;41.26;93314.16;4923770;29;9151;-63
2023/07/25 12:40:49;;;;;;;;;;;;;;;29.90;41.38;93309.94;4905221;29;9164;-63
2023/07/25 12:43:48;;;;;;;;;;;;;;;29.88;40.57;93314.56;4909097;29;7330;-63
2023/07/25 12:46:16;;;;;;;;;;;;;;;29.88;40.81;93309.75;4844890;29;7286;-63
2023/07/25 12:48:53;;;;;;;;;;;;;;;29.90;40.93;93309.94;4844069;29;7292;-63
2023/07/25 12:51:19;;;;;;;;;;;;;;;29.92;40.94;93304.56;4851518;29;7183;-62
2023/07/25 12:53:48;;;;;;;;;;;;;;;29.91;40.49;93305.09;4843843;29;7245;-63
2023/07/25 12:56:25;;;;;;;;;;;;;;;29.93;41.37;93316.38;4865730;29;7224;-64
2023/07/25 12:58:51;;;;;;;;;;;;;;;29.95;41.07;93311.72;4856323;29;7075;-64
2023/07/25 13:01:18;;;;;;;;;;;;;;;29.97;41.34;93308.41;4897126;29;9396;-64
2023/07/25 13:03:57;;;;;;;;;;;;;;;29.95;40.26;93297.88;4897450;29;7083;-64
2023/07/25 13:06:25;;;;;;;;;;;;;;;29.95;40.84;93295.09;4897025;29;6994;-63
2023/07/25 13:09:02;;;;;;;;;;;;;;;29.90;40.34;93309.94;4892272;29;9020;-63
2023/07/25 13:11:51;;;;;;;;;;;;;;;29.91;40.58;93316.19;4905533;29;7144;-63
2023/07/25 13:14:50;;;;;;;;;;;;;;;29.89;41.53;93307.72;4896877;29;7252;-63
2023/07/25 13:17:27;;;;;;;;;;;;;;;29.90;41.25;93309.94;4895457;29;6987;-63
2023/07/25 13:19:55;;;;;;;;;;;;;;;29.89;40.99;93322.31;4910779;29;7248;-63
2023/07/25 13:22:55;;;;;;;;;;;;;;;29.87;41.85;93321.41;4938142;28;8749;-63
2023/07/25 13:25:24;;;;;;;;;;;;;;;29.86;41.13;93326.22;4976700;28;8726;-63
2023/07/25 13:28:00;;;;;;;;;;;;;;;29.83;41.34;93332.88;4972506;28;8356;-63
2023/07/25 13:31:21;;;;;;;;;;;;;;;29.81;41.04;93329.94;4972589;28;7242;-63
2023/07/25 13:33:47;;;;;;;;;;;;;;;29.81;41.85;93332.72;4956273;28;9015;-63
2023/07/25 13:36:44;;;;;;;;;;;;;;;29.81;41.60;93335.50;4972918;28;9134;-64
2023/07/25 13:39:20;;;;;;;;;;;;;;;29.82;41.60;93344.56;4965740;28;7066;-64
2023/07/25 13:42:25;;;;;;;;;;;;;;;29.79;41.13;93341.59;4951341;28;9099;-64
2023/07/25 13:45:22;;;;;;;;;;;;;;;29.79;41.21;93355.47;4897092;29;7125;-63
2023/07/25 13:48:07;;;;;;;;;;;;;;;29.77;41.97;93351.78;4881473;29;7988;-63
2023/07/25 13:51:17;;;;;;;;;;;;;;;29.77;41.63;93351.78;4875768;29;7467;-63
2023/07/25 13:53:43;;;;;;;;;;;;;;;29.74;41.45;93378.59;4801408;29;8257;-64